sensor_id;sensor_type;location;lat;lon;timestamp;temperature;humidity
39525;DHT22;25203;50.754;6.978;2023-02-20T00:01:04;4.60;99.90
39525;DHT22;25203;50.754;6.978;2023-02-20T00:03:05;4.50;99.90
39525;DHT22;25203;50.754;6.978;2023-02-20T00:05:06;4.50;99.90
39525;DHT22;25203;50.754;6.978;2023-02-20T00:07:07;4.40;99.90
39525;DHT22;25203;50.754;6.978;2023-02-20T00:09:07;4.50;99.90
39525;DHT22;25203;50.754;6.978;2023-02-20T00:11:08;4.40;99.90
39525;DHT22;25203;50.754;6.978;2023-02-20T00:13:09;4.40;99.90
39525;DHT22;25203;50.754;6.978;2023-02-20T00:15:12;4.40;99.90
39525;DHT22;25203;50.754;6.978;2023-02-20T00:17:14;4.50;99.90
39525;DHT22;25203;50.754;6.978;2023-02-20T00:19:14;4.50;99.90
39525;DHT22;25203;50.754;6.978;2023-02-20T00:21:15;4.50;99.90
39525;DHT22;25203;50.754;6.978;2023-02-20T00:23:16;4.60;99.90
39525;DHT22;25203;50.754;6.978;2023-02-20T00:25:20;4.70;99.90
39525;DHT22;25203;50.754;6.978;2023-02-20T00:27:20;4.80;99.90
39525;DHT22;25203;50.754;6.978;2023-02-20T00:29:23;4.80;99.90
39525;DHT22;25203;50.754;6.978;2023-02-20T00:31:24;4.90;99.90
39525;DHT22;25203;50.754;6.978;2023-02-20T00:33:24;5.00;99.90
39525;DHT22;25203;50.754;6.978;2023-02-20T00:35:26;5.00;99.90
39525;DHT22;25203;50.754;6.978;2023-02-20T00:37:26;5.00;99.90
39525;DHT22;25203;50.754;6.978;2023-02-20T00:39:27;5.00;99.90
39525;DHT22;25203;50.754;6.978;2023-02-20T00:41:27;5.00;99.90
39525;DHT22;25203;50.754;6.978;2023-02-20T00:43:28;5.00;99.90
39525;DHT22;25203;50.754;6.978;2023-02-20T00:45:30;5.00;99.90
39525;DHT22;25203;50.754;6.978;2023-02-20T00:47:31;5.00;99.90
39525;DHT22;25203;50.754;6.978;2023-02-20T00:49:32;5.10;99.90
39525;DHT22;25203;50.754;6.978;2023-02-20T00:51:32;5.10;99.90
39525;DHT22;25203;50.754;6.978;2023-02-20T00:53:35;5.10;99.90
39525;DHT22;25203;50.754;6.978;2023-02-20T00:55:35;5.00;99.90
39525;DHT22;25203;50.754;6.978;2023-02-20T00:57:36;5.00;99.90
39525;DHT22;25203;50.754;6.978;2023-02-20T00:59:39;5.00;99.90
39525;DHT22;25203;50.754;6.978;2023-02-20T01:01:40;4.90;99.90
39525;DHT22;25203;50.754;6.978;2023-02-20T01:03:41;4.90;99.90
39525;DHT22;25203;50.754;6.978;2023-02-20T01:05:41;4.90;99.90
39525;DHT22;25203;50.754;6.978;2023-02-20T01:07:42;5.00;99.90
39525;DHT22;25203;50.754;6.978;2023-02-20T01:09:42;5.00;99.90
39525;DHT22;25203;50.754;6.978;2023-02-20T01:11:44;4.90;99.90
39525;DHT22;25203;50.754;6.978;2023-02-20T01:13:44;4.90;99.90
39525;DHT22;25203;50.754;6.978;2023-02-20T01:15:45;4.90;99.90
39525;DHT22;25203;50.754;6.978;2023-02-20T01:17:46;4.90;99.90
39525;DHT22;25203;50.754;6.978;2023-02-20T01:19:46;4.90;99.90
39525;DHT22;25203;50.754;6.978;2023-02-20T01:21:47;4.90;99.90
39525;DHT22;25203;50.754;6.978;2023-02-20T01:23:48;4.90;99.90
39525;DHT22;25203;50.754;6.978;2023-02-20T01:25:48;5.10;99.90
39525;DHT22;25203;50.754;6.978;2023-02-20T01:27:49;5.10;99.90
39525;DHT22;25203;50.754;6.978;2023-02-20T01:29:50;5.30;99.90
39525;DHT22;25203;50.754;6.978;2023-02-20T01:31:51;5.30;99.90
39525;DHT22;25203;50.754;6.978;2023-02-20T01:33:52;5.40;99.90
39525;DHT22;25203;50.754;6.978;2023-02-20T01:35:52;5.50;99.90
39525;DHT22;25203;50.754;6.978;2023-02-20T01:37:53;5.50;99.90
39525;DHT22;25203;50.754;6.978;2023-02-20T01:39:53;5.60;99.90
39525;DHT22;25203;50.754;6.978;2023-02-20T01:41:58;5.60;99.90
39525;DHT22;25203;50.754;6.978;2023-02-20T01:43:59;5.50;99.90
39525;DHT22;25203;50.754;6.978;2023-02-20T01:48:28;5.50;99.90
39525;DHT22;25203;50.754;6.978;2023-02-20T01:50:39;5.50;99.90
39525;DHT22;25203;50.754;6.978;2023-02-20T01:52:42;5.50;99.90
39525;DHT22;25203;50.754;6.978;2023-02-20T01:54:55;5.40;99.90
39525;DHT22;25203;50.754;6.978;2023-02-20T01:57:00;5.30;99.90
39525;DHT22;25203;50.754;6.978;2023-02-20T01:59:03;5.20;99.90
39525;DHT22;25203;50.754;6.978;2023-02-20T02:01:05;5.20;99.90
39525;DHT22;25203;50.754;6.978;2023-02-20T02:03:10;5.30;99.90
39525;DHT22;25203;50.754;6.978;2023-02-20T02:05:11;5.30;99.90
39525;DHT22;25203;50.754;6.978;2023-02-20T02:07:12;5.30;99.90
39525;DHT22;25203;50.754;6.978;2023-02-20T02:11:31;5.60;99.90
39525;DHT22;25203;50.754;6.978;2023-02-20T02:13:34;5.60;99.90
39525;DHT22;25203;50.754;6.978;2023-02-20T02:15:34;5.70;99.90
39525;DHT22;25203;50.754;6.978;2023-02-20T02:24:59;5.80;99.90
39525;DHT22;25203;50.754;6.978;2023-02-20T02:36:50;6.10;99.90
39525;DHT22;25203;50.754;6.978;2023-02-20T02:41:11;6.10;99.90
39525;DHT22;25203;50.754;6.978;2023-02-20T02:46:00;6.00;99.90
39525;DHT22;25203;50.754;6.978;2023-02-20T02:48:38;5.90;99.90
39525;DHT22;25203;50.754;6.978;2023-02-20T02:50:44;5.70;99.90
39525;DHT22;25203;50.754;6.978;2023-02-20T02:52:48;5.60;99.90
39525;DHT22;25203;50.754;6.978;2023-02-20T02:54:50;5.50;99.90
39525;DHT22;25203;50.754;6.978;2023-02-20T02:56:51;5.40;99.90
39525;DHT22;25203;50.754;6.978;2023-02-20T02:58:53;5.40;99.90
39525;DHT22;25203;50.754;6.978;2023-02-20T03:00:59;5.40;99.90
39525;DHT22;25203;50.754;6.978;2023-02-20T03:03:18;5.50;99.90
39525;DHT22;25203;50.754;6.978;2023-02-20T03:05:23;5.50;99.90
39525;DHT22;25203;50.754;6.978;2023-02-20T03:07:26;5.50;99.90
39525;DHT22;25203;50.754;6.978;2023-02-20T03:09:35;5.50;99.90
39525;DHT22;25203;50.754;6.978;2023-02-20T03:11:38;5.50;99.90
39525;DHT22;25203;50.754;6.978;2023-02-20T03:16:05;5.60;99.90
39525;DHT22;25203;50.754;6.978;2023-02-20T03:18:23;5.60;99.90
39525;DHT22;25203;50.754;6.978;2023-02-20T03:20:28;5.70;99.90
39525;DHT22;25203;50.754;6.978;2023-02-20T03:22:42;5.70;99.90
39525;DHT22;25203;50.754;6.978;2023-02-20T03:24:45;5.80;99.90
39525;DHT22;25203;50.754;6.978;2023-02-20T03:26:58;5.80;99.90
39525;DHT22;25203;50.754;6.978;2023-02-20T03:29:10;5.90;99.90
39525;DHT22;25203;50.754;6.978;2023-02-20T03:31:16;5.90;99.90
39525;DHT22;25203;50.754;6.978;2023-02-20T03:33:31;5.90;99.90
39525;DHT22;25203;50.754;6.978;2023-02-20T03:35:52;5.90;99.90
39525;DHT22;25203;50.754;6.978;2023-02-20T03:38:15;5.90;99.90
39525;DHT22;25203;50.754;6.978;2023-02-20T03:40:36;5.80;99.90
39525;DHT22;25203;50.754;6.978;2023-02-20T03:42:59;5.80;99.90
39525;DHT22;25203;50.754;6.978;2023-02-20T03:45:21;5.80;99.90
39525;DHT22;25203;50.754;6.978;2023-02-20T03:47:24;5.80;99.90
39525;DHT22;25203;50.754;6.978;2023-02-20T03:49:30;5.80;99.90
39525;DHT22;25203;50.754;6.978;2023-02-20T03:51:33;5.70;99.90
39525;DHT22;25203;50.754;6.978;2023-02-20T03:53:34;5.80;99.90
39525;DHT22;25203;50.754;6.978;2023-02-20T03:55:34;5.70;99.90
39525;DHT22;25203;50.754;6.978;2023-02-20T03:57:40;5.60;99.90
39525;DHT22;25203;50.754;6.978;2023-02-20T03:59:49;5.60;99.90
39525;DHT22;25203;50.754;6.978;2023-02-20T04:01:55;5.40;99.90
39525;DHT22;25203;50.754;6.978;2023-02-20T04:03:57;5.20;99.90
39525;DHT22;25203;50.754;6.978;2023-02-20T04:05:59;5.00;99.90
39525;DHT22;25203;50.754;6.978;2023-02-20T04:08:13;4.90;99.90
39525;DHT22;25203;50.754;6.978;2023-02-20T04:10:19;4.70;99.90
39525;DHT22;25203;50.754;6.978;2023-02-20T04:12:24;4.50;99.90
39525;DHT22;25203;50.754;6.978;2023-02-20T04:14:28;4.30;99.90
39525;DHT22;25203;50.754;6.978;2023-02-20T04:16:33;4.30;99.90
39525;DHT22;25203;50.754;6.978;2023-02-20T04:18:35;4.20;99.90
39525;DHT22;25203;50.754;6.978;2023-02-20T04:20:36;4.10;99.90
39525;DHT22;25203;50.754;6.978;2023-02-20T04:22:40;4.10;99.90
39525;DHT22;25203;50.754;6.978;2023-02-20T04:24:53;4.00;99.90
39525;DHT22;25203;50.754;6.978;2023-02-20T04:26:55;4.00;99.90
39525;DHT22;25203;50.754;6.978;2023-02-20T04:28:56;3.90;99.90
39525;DHT22;25203;50.754;6.978;2023-02-20T04:30:57;3.80;99.90
39525;DHT22;25203;50.754;6.978;2023-02-20T04:32:58;3.80;99.90
39525;DHT22;25203;50.754;6.978;2023-02-20T04:34:58;3.70;99.90
39525;DHT22;25203;50.754;6.978;2023-02-20T04:37:11;3.70;99.90
39525;DHT22;25203;50.754;6.978;2023-02-20T04:39:12;3.80;99.90
39525;DHT22;25203;50.754;6.978;2023-02-20T04:41:13;3.80;99.90
39525;DHT22;25203;50.754;6.978;2023-02-20T04:43:13;3.90;99.90
39525;DHT22;25203;50.754;6.978;2023-02-20T04:45:14;3.80;99.90
39525;DHT22;25203;50.754;6.978;2023-02-20T04:47:17;3.80;99.90
39525;DHT22;25203;50.754;6.978;2023-02-20T04:49:18;3.70;99.90
39525;DHT22;25203;50.754;6.978;2023-02-20T04:51:18;3.70;99.90
39525;DHT22;25203;50.754;6.978;2023-02-20T04:53:19;3.70;99.90
39525;DHT22;25203;50.754;6.978;2023-02-20T04:55:20;3.60;99.90
39525;DHT22;25203;50.754;6.978;2023-02-20T04:57:21;3.60;99.90
39525;DHT22;25203;50.754;6.978;2023-02-20T04:59:21;3.60;99.90
39525;DHT22;25203;50.754;6.978;2023-02-20T05:01:22;3.60;99.90
39525;DHT22;25203;50.754;6.978;2023-02-20T05:03:23;3.60;99.90
39525;DHT22;25203;50.754;6.978;2023-02-20T05:05:28;3.60;99.90
39525;DHT22;25203;50.754;6.978;2023-02-20T05:07:28;3.70;99.90
39525;DHT22;25203;50.754;6.978;2023-02-20T05:09:29;3.80;99.90
39525;DHT22;25203;50.754;6.978;2023-02-20T05:11:30;3.90;99.90
39525;DHT22;25203;50.754;6.978;2023-02-20T05:13:31;3.90;99.90
39525;DHT22;25203;50.754;6.978;2023-02-20T05:15:32;4.00;99.90
39525;DHT22;25203;50.754;6.978;2023-02-20T05:17:32;4.20;99.90
39525;DHT22;25203;50.754;6.978;2023-02-20T05:19:33;4.30;99.90
39525;DHT22;25203;50.754;6.978;2023-02-20T05:21:34;4.40;99.90
39525;DHT22;25203;50.754;6.978;2023-02-20T05:23:53;4.40;99.90
39525;DHT22;25203;50.754;6.978;2023-02-20T05:25:54;4.40;99.90
39525;DHT22;25203;50.754;6.978;2023-02-20T05:27:54;4.40;99.90
39525;DHT22;25203;50.754;6.978;2023-02-20T05:29:57;4.50;99.90
39525;DHT22;25203;50.754;6.978;2023-02-20T05:31:58;4.50;99.90
39525;DHT22;25203;50.754;6.978;2023-02-20T05:33:58;4.60;99.90
39525;DHT22;25203;50.754;6.978;2023-02-20T05:35:59;4.70;99.90
39525;DHT22;25203;50.754;6.978;2023-02-20T05:38:00;4.80;99.90
39525;DHT22;25203;50.754;6.978;2023-02-20T05:40:00;4.90;99.90
39525;DHT22;25203;50.754;6.978;2023-02-20T05:42:01;5.00;99.90
39525;DHT22;25203;50.754;6.978;2023-02-20T05:44:02;5.20;99.90
39525;DHT22;25203;50.754;6.978;2023-02-20T05:46:02;5.30;99.90
39525;DHT22;25203;50.754;6.978;2023-02-20T05:48:03;5.40;99.90
39525;DHT22;25203;50.754;6.978;2023-02-20T05:50:05;5.40;99.90
39525;DHT22;25203;50.754;6.978;2023-02-20T05:52:05;5.40;99.90
39525;DHT22;25203;50.754;6.978;2023-02-20T05:54:11;5.40;99.90
39525;DHT22;25203;50.754;6.978;2023-02-20T05:56:12;5.50;99.90
39525;DHT22;25203;50.754;6.978;2023-02-20T05:58:13;5.50;99.90
39525;DHT22;25203;50.754;6.978;2023-02-20T06:00:13;5.50;99.90
39525;DHT22;25203;50.754;6.978;2023-02-20T06:02:14;5.50;99.90
39525;DHT22;25203;50.754;6.978;2023-02-20T06:04:15;5.60;99.90
39525;DHT22;25203;50.754;6.978;2023-02-20T06:06:16;5.60;99.90
39525;DHT22;25203;50.754;6.978;2023-02-20T06:08:17;5.50;99.90
39525;DHT22;25203;50.754;6.978;2023-02-20T06:10:19;5.50;99.90
39525;DHT22;25203;50.754;6.978;2023-02-20T06:12:19;5.40;99.90
39525;DHT22;25203;50.754;6.978;2023-02-20T06:14:21;5.40;99.90
39525;DHT22;25203;50.754;6.978;2023-02-20T06:16:27;5.40;99.90
39525;DHT22;25203;50.754;6.978;2023-02-20T06:18:27;5.40;99.90
39525;DHT22;25203;50.754;6.978;2023-02-20T06:20:28;5.40;99.90
39525;DHT22;25203;50.754;6.978;2023-02-20T06:22:28;5.40;99.90
39525;DHT22;25203;50.754;6.978;2023-02-20T06:24:29;5.40;99.90
39525;DHT22;25203;50.754;6.978;2023-02-20T06:26:30;5.40;99.90
39525;DHT22;25203;50.754;6.978;2023-02-20T06:28:30;5.40;99.90
39525;DHT22;25203;50.754;6.978;2023-02-20T06:30:31;5.30;99.90
39525;DHT22;25203;50.754;6.978;2023-02-20T06:32:32;5.30;99.90
39525;DHT22;25203;50.754;6.978;2023-02-20T06:34:33;5.30;99.90
39525;DHT22;25203;50.754;6.978;2023-02-20T06:36:36;5.20;99.90
39525;DHT22;25203;50.754;6.978;2023-02-20T06:38:36;5.30;99.90
39525;DHT22;25203;50.754;6.978;2023-02-20T06:40:38;5.30;99.90
39525;DHT22;25203;50.754;6.978;2023-02-20T06:42:39;5.40;99.90
39525;DHT22;25203;50.754;6.978;2023-02-20T06:44:39;5.40;99.90
39525;DHT22;25203;50.754;6.978;2023-02-20T06:46:40;5.50;99.90
39525;DHT22;25203;50.754;6.978;2023-02-20T06:48:45;5.50;99.90
39525;DHT22;25203;50.754;6.978;2023-02-20T06:50:46;5.50;99.90
39525;DHT22;25203;50.754;6.978;2023-02-20T06:52:47;5.60;99.90
39525;DHT22;25203;50.754;6.978;2023-02-20T06:54:47;5.70;99.90
39525;DHT22;25203;50.754;6.978;2023-02-20T06:56:48;5.70;99.90
39525;DHT22;25203;50.754;6.978;2023-02-20T06:58:50;5.80;99.90
39525;DHT22;25203;50.754;6.978;2023-02-20T07:00:51;5.90;99.90
39525;DHT22;25203;50.754;6.978;2023-02-20T07:02:52;6.00;99.90
39525;DHT22;25203;50.754;6.978;2023-02-20T07:04:52;6.10;99.90
39525;DHT22;25203;50.754;6.978;2023-02-20T07:06:53;6.30;99.90
39525;DHT22;25203;50.754;6.978;2023-02-20T07:08:54;6.30;99.90
39525;DHT22;25203;50.754;6.978;2023-02-20T07:10:55;6.40;99.90
39525;DHT22;25203;50.754;6.978;2023-02-20T07:12:56;6.50;99.90
39525;DHT22;25203;50.754;6.978;2023-02-20T07:14:56;6.50;99.90
39525;DHT22;25203;50.754;6.978;2023-02-20T07:16:57;6.60;99.90
39525;DHT22;25203;50.754;6.978;2023-02-20T07:18:57;6.60;99.90
39525;DHT22;25203;50.754;6.978;2023-02-20T07:20:58;6.60;99.90
39525;DHT22;25203;50.754;6.978;2023-02-20T07:22:59;6.60;99.90
39525;DHT22;25203;50.754;6.978;2023-02-20T07:24:59;6.60;99.90
39525;DHT22;25203;50.754;6.978;2023-02-20T07:27:00;6.60;99.90
39525;DHT22;25203;50.754;6.978;2023-02-20T07:29:02;6.60;99.90
39525;DHT22;25203;50.754;6.978;2023-02-20T07:31:02;6.70;99.90
39525;DHT22;25203;50.754;6.978;2023-02-20T07:33:03;6.90;99.90
39525;DHT22;25203;50.754;6.978;2023-02-20T07:35:04;7.30;99.90
39525;DHT22;25203;50.754;6.978;2023-02-20T07:37:04;7.80;99.90
39525;DHT22;25203;50.754;6.978;2023-02-20T07:39:05;8.20;99.90
39525;DHT22;25203;50.754;6.978;2023-02-20T07:41:06;8.40;99.90
39525;DHT22;25203;50.754;6.978;2023-02-20T07:43:07;8.50;99.90
39525;DHT22;25203;50.754;6.978;2023-02-20T07:45:10;8.40;99.90
39525;DHT22;25203;50.754;6.978;2023-02-20T07:47:10;8.20;99.90
39525;DHT22;25203;50.754;6.978;2023-02-20T07:49:11;8.10;99.90
39525;DHT22;25203;50.754;6.978;2023-02-20T07:51:12;8.30;99.90
39525;DHT22;25203;50.754;6.978;2023-02-20T07:53:14;8.90;99.90
39525;DHT22;25203;50.754;6.978;2023-02-20T07:55:16;9.70;99.90
39525;DHT22;25203;50.754;6.978;2023-02-20T07:57:16;10.50;99.90
39525;DHT22;25203;50.754;6.978;2023-02-20T07:59:17;11.30;99.90
39525;DHT22;25203;50.754;6.978;2023-02-20T08:01:18;12.00;99.90
39525;DHT22;25203;50.754;6.978;2023-02-20T08:03:19;12.40;99.90
39525;DHT22;25203;50.754;6.978;2023-02-20T08:05:20;12.70;99.00
39525;DHT22;25203;50.754;6.978;2023-02-20T08:07:20;12.60;97.70
39525;DHT22;25203;50.754;6.978;2023-02-20T08:09:21;12.30;97.40
39525;DHT22;25203;50.754;6.978;2023-02-20T08:11:22;12.10;97.70
39525;DHT22;25203;50.754;6.978;2023-02-20T08:13:23;11.70;98.50
39525;DHT22;25203;50.754;6.978;2023-02-20T08:15:24;11.50;98.90
39525;DHT22;25203;50.754;6.978;2023-02-20T08:17:24;11.60;99.10
39525;DHT22;25203;50.754;6.978;2023-02-20T08:19:25;11.40;99.00
39525;DHT22;25203;50.754;6.978;2023-02-20T08:21:26;11.40;98.40
39525;DHT22;25203;50.754;6.978;2023-02-20T08:23:27;11.60;99.00
39525;DHT22;25203;50.754;6.978;2023-02-20T08:25:28;12.00;98.60
39525;DHT22;25203;50.754;6.978;2023-02-20T08:27:30;12.50;96.80
39525;DHT22;25203;50.754;6.978;2023-02-20T08:29:30;12.70;97.20
39525;DHT22;25203;50.754;6.978;2023-02-20T08:31:31;13.00;96.50
39525;DHT22;25203;50.754;6.978;2023-02-20T08:33:32;13.20;95.90
39525;DHT22;25203;50.754;6.978;2023-02-20T08:35:33;13.30;95.90
39525;DHT22;25203;50.754;6.978;2023-02-20T08:37:34;13.40;95.80
39525;DHT22;25203;50.754;6.978;2023-02-20T08:39:35;13.50;95.30
39525;DHT22;25203;50.754;6.978;2023-02-20T08:41:44;13.40;95.30
39525;DHT22;25203;50.754;6.978;2023-02-20T08:43:45;13.50;95.10
39525;DHT22;25203;50.754;6.978;2023-02-20T08:45:46;13.40;95.40
39525;DHT22;25203;50.754;6.978;2023-02-20T08:47:47;13.30;95.30
39525;DHT22;25203;50.754;6.978;2023-02-20T08:49:48;13.10;95.40
39525;DHT22;25203;50.754;6.978;2023-02-20T08:51:52;12.80;96.00
39525;DHT22;25203;50.754;6.978;2023-02-20T08:53:54;12.90;96.10
39525;DHT22;25203;50.754;6.978;2023-02-20T08:55:54;13.10;96.40
39525;DHT22;25203;50.754;6.978;2023-02-20T08:57:55;13.30;96.20
39525;DHT22;25203;50.754;6.978;2023-02-20T08:59:56;13.70;95.70
39525;DHT22;25203;50.754;6.978;2023-02-20T09:01:56;14.20;94.70
39525;DHT22;25203;50.754;6.978;2023-02-20T09:03:57;14.60;94.00
39525;DHT22;25203;50.754;6.978;2023-02-20T09:05:58;14.80;92.80
39525;DHT22;25203;50.754;6.978;2023-02-20T09:07:59;15.00;92.30
39525;DHT22;25203;50.754;6.978;2023-02-20T09:09:59;14.90;92.40
39525;DHT22;25203;50.754;6.978;2023-02-20T09:12:00;14.80;92.20
39525;DHT22;25203;50.754;6.978;2023-02-20T09:14:00;14.60;92.20
39525;DHT22;25203;50.754;6.978;2023-02-20T09:16:01;14.40;92.50
39525;DHT22;25203;50.754;6.978;2023-02-20T09:18:02;14.80;93.00
39525;DHT22;25203;50.754;6.978;2023-02-20T09:20:03;16.00;92.10
39525;DHT22;25203;50.754;6.978;2023-02-20T09:22:04;17.40;90.40
39525;DHT22;25203;50.754;6.978;2023-02-20T09:24:05;19.30;83.80
39525;DHT22;25203;50.754;6.978;2023-02-20T09:26:06;20.50;78.70
39525;DHT22;25203;50.754;6.978;2023-02-20T09:28:07;21.20;72.60
39525;DHT22;25203;50.754;6.978;2023-02-20T09:30:09;22.20;69.50
39525;DHT22;25203;50.754;6.978;2023-02-20T09:32:16;23.60;64.40
39525;DHT22;25203;50.754;6.978;2023-02-20T09:34:16;25.00;60.70
39525;DHT22;25203;50.754;6.978;2023-02-20T09:36:17;26.30;57.50
39525;DHT22;25203;50.754;6.978;2023-02-20T09:38:18;27.00;55.00
39525;DHT22;25203;50.754;6.978;2023-02-20T09:40:23;27.50;52.90
39525;DHT22;25203;50.754;6.978;2023-02-20T09:42:38;27.70;51.10
39525;DHT22;25203;50.754;6.978;2023-02-20T09:47:19;26.20;52.20
39525;DHT22;25203;50.754;6.978;2023-02-20T09:49:25;25.60;50.30
39525;DHT22;25203;50.754;6.978;2023-02-20T09:51:36;23.80;52.50
39525;DHT22;25203;50.754;6.978;2023-02-20T09:56:00;21.60;56.30
39525;DHT22;25203;50.754;6.978;2023-02-20T09:58:03;20.00;59.00
39525;DHT22;25203;50.754;6.978;2023-02-20T10:00:08;19.10;61.50
39525;DHT22;25203;50.754;6.978;2023-02-20T10:02:15;18.80;61.30
39525;DHT22;25203;50.754;6.978;2023-02-20T10:04:20;18.00;61.80
39525;DHT22;25203;50.754;6.978;2023-02-20T10:06:25;18.40;63.30
39525;DHT22;25203;50.754;6.978;2023-02-20T10:08:26;19.30;62.20
39525;DHT22;25203;50.754;6.978;2023-02-20T10:10:30;20.00;61.90
39525;DHT22;25203;50.754;6.978;2023-02-20T10:12:40;21.40;57.90
39525;DHT22;25203;50.754;6.978;2023-02-20T10:14:51;21.90;58.20
39525;DHT22;25203;50.754;6.978;2023-02-20T10:17:17;21.80;56.60
39525;DHT22;25203;50.754;6.978;2023-02-20T10:21:50;22.20;56.50
39525;DHT22;25203;50.754;6.978;2023-02-20T10:23:57;21.90;57.80
39525;DHT22;25203;50.754;6.978;2023-02-20T10:26:06;21.40;57.30
39525;DHT22;25203;50.754;6.978;2023-02-20T10:28:13;21.90;57.60
39525;DHT22;25203;50.754;6.978;2023-02-20T10:30:22;22.60;56.50
39525;DHT22;25203;50.754;6.978;2023-02-20T10:32:57;22.90;56.50
39525;DHT22;25203;50.754;6.978;2023-02-20T10:35:08;23.70;55.60
39525;DHT22;25203;50.754;6.978;2023-02-20T10:37:16;24.50;53.40
39525;DHT22;25203;50.754;6.978;2023-02-20T10:39:20;24.70;54.60
39525;DHT22;25203;50.754;6.978;2023-02-20T10:41:39;25.80;54.10
39525;DHT22;25203;50.754;6.978;2023-02-20T10:43:47;27.10;52.20
39525;DHT22;25203;50.754;6.978;2023-02-20T10:48:12;25.80;51.80
39525;DHT22;25203;50.754;6.978;2023-02-20T10:50:22;26.00;52.30
39525;DHT22;25203;50.754;6.978;2023-02-20T10:55:11;27.40;51.50
39525;DHT22;25203;50.754;6.978;2023-02-20T10:57:21;27.60;50.90
39525;DHT22;25203;50.754;6.978;2023-02-20T10:59:30;28.30;50.00
39525;DHT22;25203;50.754;6.978;2023-02-20T11:01:34;27.40;50.00
39525;DHT22;25203;50.754;6.978;2023-02-20T11:04:01;26.30;51.00
39525;DHT22;25203;50.754;6.978;2023-02-20T11:06:05;25.80;51.60
39525;DHT22;25203;50.754;6.978;2023-02-20T11:08:08;24.30;51.90
39525;DHT22;25203;50.754;6.978;2023-02-20T11:10:09;23.20;54.30
39525;DHT22;25203;50.754;6.978;2023-02-20T11:12:50;22.80;55.30
39525;DHT22;25203;50.754;6.978;2023-02-20T11:14:51;24.30;54.60
39525;DHT22;25203;50.754;6.978;2023-02-20T11:16:57;25.00;52.70
39525;DHT22;25203;50.754;6.978;2023-02-20T11:19:07;24.90;52.70
39525;DHT22;25203;50.754;6.978;2023-02-20T11:21:08;24.30;52.40
39525;DHT22;25203;50.754;6.978;2023-02-20T11:23:08;24.50;53.50
39525;DHT22;25203;50.754;6.978;2023-02-20T11:25:19;25.00;52.90
39525;DHT22;25203;50.754;6.978;2023-02-20T11:27:22;25.20;52.60
39525;DHT22;25203;50.754;6.978;2023-02-20T11:29:42;24.90;52.60
39525;DHT22;25203;50.754;6.978;2023-02-20T11:31:46;24.70;53.70
39525;DHT22;25203;50.754;6.978;2023-02-20T11:33:47;25.00;53.00
39525;DHT22;25203;50.754;6.978;2023-02-20T11:35:52;24.70;52.70
39525;DHT22;25203;50.754;6.978;2023-02-20T11:38:18;23.60;53.60
39525;DHT22;25203;50.754;6.978;2023-02-20T11:40:30;21.80;56.50
39525;DHT22;25203;50.754;6.978;2023-02-20T11:42:32;21.20;58.30
39525;DHT22;25203;50.754;6.978;2023-02-20T11:44:33;21.00;58.70
39525;DHT22;25203;50.754;6.978;2023-02-20T11:46:34;21.00;58.80
39525;DHT22;25203;50.754;6.978;2023-02-20T11:48:35;20.90;58.60
39525;DHT22;25203;50.754;6.978;2023-02-20T11:50:49;20.20;60.50
39525;DHT22;25203;50.754;6.978;2023-02-20T11:53:03;18.90;61.80
39525;DHT22;25203;50.754;6.978;2023-02-20T11:55:20;17.50;64.90
39525;DHT22;25203;50.754;6.978;2023-02-20T11:57:25;17.00;66.10
39525;DHT22;25203;50.754;6.978;2023-02-20T12:01:33;16.90;67.90
39525;DHT22;25203;50.754;6.978;2023-02-20T12:03:34;17.20;67.70
39525;DHT22;25203;50.754;6.978;2023-02-20T12:05:41;17.20;67.90
39525;DHT22;25203;50.754;6.978;2023-02-20T12:09:55;16.10;71.60
39525;DHT22;25203;50.754;6.978;2023-02-20T12:11:56;15.90;72.40
39525;DHT22;25203;50.754;6.978;2023-02-20T12:13:59;15.70;75.70
39525;DHT22;25203;50.754;6.978;2023-02-20T12:21:08;15.80;77.60
39525;DHT22;25203;50.754;6.978;2023-02-20T12:23:21;15.70;80.10
39525;DHT22;25203;50.754;6.978;2023-02-20T12:28:09;14.80;88.70
39525;DHT22;25203;50.754;6.978;2023-02-20T12:47:38;16.30;86.30
39525;DHT22;25203;50.754;6.978;2023-02-20T12:58:47;15.10;91.60
39525;DHT22;25203;50.754;6.978;2023-02-20T13:01:14;14.80;91.00
39525;DHT22;25203;50.754;6.978;2023-02-20T13:05:24;14.70;92.50
39525;DHT22;25203;50.754;6.978;2023-02-20T13:07:41;14.90;91.90
39525;DHT22;25203;50.754;6.978;2023-02-20T13:10:06;15.10;93.10
39525;DHT22;25203;50.754;6.978;2023-02-20T13:12:12;14.80;93.00
39525;DHT22;25203;50.754;6.978;2023-02-20T13:14:22;14.70;94.30
39525;DHT22;25203;50.754;6.978;2023-02-20T13:16:32;14.80;93.70
39525;DHT22;25203;50.754;6.978;2023-02-20T13:18:39;14.80;92.70
39525;DHT22;25203;50.754;6.978;2023-02-20T13:20:51;14.80;92.90
39525;DHT22;25203;50.754;6.978;2023-02-20T13:23:01;14.70;93.90
39525;DHT22;25203;50.754;6.978;2023-02-20T13:27:33;14.80;95.10
39525;DHT22;25203;50.754;6.978;2023-02-20T13:29:36;15.00;94.80
39525;DHT22;25203;50.754;6.978;2023-02-20T13:33:40;15.30;94.10
39525;DHT22;25203;50.754;6.978;2023-02-20T13:35:51;15.40;94.00
39525;DHT22;25203;50.754;6.978;2023-02-20T13:37:53;15.40;93.00
39525;DHT22;25203;50.754;6.978;2023-02-20T13:39:54;15.30;93.60
39525;DHT22;25203;50.754;6.978;2023-02-20T13:47:03;15.00;94.30
39525;DHT22;25203;50.754;6.978;2023-02-20T13:49:04;14.90;94.20
39525;DHT22;25203;50.754;6.978;2023-02-20T13:53:24;14.40;95.50
39525;DHT22;25203;50.754;6.978;2023-02-20T13:55:26;14.30;95.70
39525;DHT22;25203;50.754;6.978;2023-02-20T13:57:30;14.40;96.40
39525;DHT22;25203;50.754;6.978;2023-02-20T13:59:33;14.40;95.90
39525;DHT22;25203;50.754;6.978;2023-02-20T14:04:04;14.50;96.30
39525;DHT22;25203;50.754;6.978;2023-02-20T14:06:13;14.60;95.80
39525;DHT22;25203;50.754;6.978;2023-02-20T14:08:17;14.30;96.40
39525;DHT22;25203;50.754;6.978;2023-02-20T14:10:33;14.20;96.70
39525;DHT22;25203;50.754;6.978;2023-02-20T14:12:34;14.20;97.90
39525;DHT22;25203;50.754;6.978;2023-02-20T14:14:40;14.10;97.50
39525;DHT22;25203;50.754;6.978;2023-02-20T14:16:42;14.00;97.80
39525;DHT22;25203;50.754;6.978;2023-02-20T14:18:45;13.90;98.90
39525;DHT22;25203;50.754;6.978;2023-02-20T14:20:47;13.90;99.40
39525;DHT22;25203;50.754;6.978;2023-02-20T14:22:48;13.90;99.70
39525;DHT22;25203;50.754;6.978;2023-02-20T14:25:17;13.80;99.10
39525;DHT22;25203;50.754;6.978;2023-02-20T14:27:26;13.80;99.40
39525;DHT22;25203;50.754;6.978;2023-02-20T14:29:30;13.90;99.90
39525;DHT22;25203;50.754;6.978;2023-02-20T14:31:35;13.90;99.60
39525;DHT22;25203;50.754;6.978;2023-02-20T14:33:36;13.80;99.50
39525;DHT22;25203;50.754;6.978;2023-02-20T14:35:47;13.80;99.90
39525;DHT22;25203;50.754;6.978;2023-02-20T14:40:10;13.40;99.90
39525;DHT22;25203;50.754;6.978;2023-02-20T14:42:18;13.50;99.90
39525;DHT22;25203;50.754;6.978;2023-02-20T14:44:20;13.50;99.90
39525;DHT22;25203;50.754;6.978;2023-02-20T14:46:33;13.40;99.90
39525;DHT22;25203;50.754;6.978;2023-02-20T14:48:36;13.10;99.90
39525;DHT22;25203;50.754;6.978;2023-02-20T14:50:40;13.20;99.90